createdAt,value
2023-10-25T00:01:31.320Z,76.80
2023-10-25T00:04:37.632Z,77.03
2023-10-25T00:07:44.549Z,76.75
2023-10-25T00:10:52.924Z,76.68
2023-10-25T00:13:59.760Z,76.82
2023-10-25T00:17:05.549Z,76.84
2023-10-25T00:20:13.105Z,76.70
2023-10-25T00:23:19.039Z,76.59
2023-10-25T00:26:28.256Z,76.68
2023-10-25T00:29:35.341Z,76.59
2023-10-25T00:32:42.973Z,76.49
2023-10-25T00:35:48.761Z,76.39
2023-10-25T00:38:55.387Z,76.67
2023-10-25T00:42:03.827Z,76.60
2023-10-25T00:45:13.043Z,76.63
2023-10-25T00:48:19.211Z,76.65
2023-10-25T00:51:28.175Z,76.89
2023-10-25T00:54:34.102Z,76.57
2023-10-25T00:57:43.566Z,76.92
2023-10-25T01:00:50.738Z,76.44
2023-10-25T01:03:58.630Z,76.50
2023-10-25T01:07:05.163Z,76.33
2023-10-25T01:10:13.521Z,76.40
2023-10-25T01:13:24.113Z,76.44
2023-10-25T01:16:30.989Z,76.60
2023-10-25T01:19:36.875Z,76.62
2023-10-25T01:22:46.157Z,76.56
2023-10-25T01:25:52.617Z,76.46
2023-10-25T01:28:59.270Z,76.51
2023-10-25T01:32:05.489Z,76.45
2023-10-25T01:35:13.365Z,76.42
2023-10-25T01:38:21.906Z,76.32
2023-10-25T01:41:28.686Z,76.29
2023-10-25T01:44:34.495Z,76.53
2023-10-25T01:47:41.682Z,76.89
2023-10-25T01:50:47.471Z,76.80
2023-10-25T01:53:56.688Z,77.06
2023-10-25T01:57:02.777Z,77.08
2023-10-25T02:00:11.316Z,77.24
2023-10-25T02:03:20.156Z,77.19
2023-10-25T02:06:26.715Z,76.94
2023-10-25T02:09:35.328Z,76.90
2023-10-25T02:12:42.019Z,76.66
2023-10-25T02:15:48.260Z,76.79
2023-10-25T02:18:55.044Z,76.63
2023-10-25T02:22:01.039Z,76.63
2023-10-25T02:25:11.751Z,76.69
2023-10-25T02:28:17.613Z,76.67
2023-10-25T02:31:24.401Z,76.65
2023-10-25T02:34:30.342Z,76.65
2023-10-25T02:37:36.981Z,76.36
2023-10-25T02:40:45.328Z,76.21
2023-10-25T02:43:52.630Z,76.18
2023-10-25T02:47:00.394Z,76.23
2023-10-25T02:50:07.999Z,75.85
2023-10-25T02:53:14.416Z,75.76
2023-10-25T02:56:23.648Z,75.94
2023-10-25T02:59:29.531Z,75.72
2023-10-25T03:02:36.305Z,75.60
2023-10-25T03:05:42.338Z,75.44
2023-10-25T03:08:50.698Z,75.42
2023-10-25T03:11:59.529Z,75.55
2023-10-25T03:15:06.375Z,75.10
2023-10-25T03:18:12.510Z,75.36
2023-10-25T03:21:19.366Z,75.23
2023-10-25T03:24:25.095Z,74.87
2023-10-25T03:27:34.296Z,74.87
2023-10-25T03:30:40.952Z,74.79
2023-10-25T03:33:49.687Z,74.80
2023-10-25T03:36:55.801Z,74.73
2023-10-25T03:40:02.761Z,74.42
2023-10-25T03:43:11.339Z,74.44
2023-10-25T03:46:18.101Z,74.45
2023-10-25T03:49:23.892Z,74.40
2023-10-25T03:52:30.592Z,74.54
2023-10-25T03:55:36.349Z,74.76
2023-10-25T03:58:46.406Z,74.39
2023-10-25T04:01:52.445Z,74.50
2023-10-25T04:04:59.507Z,74.55
2023-10-25T04:08:05.268Z,74.56
2023-10-25T04:11:12.017Z,74.33
2023-10-25T04:14:20.647Z,74.55
2023-10-25T04:17:27.311Z,74.63
2023-10-25T04:20:36.081Z,74.39
2023-10-25T04:23:44.018Z,74.61
2023-10-25T04:26:49.993Z,74.48
2023-10-25T04:30:00.152Z,74.92
2023-10-25T04:33:06.827Z,74.50
2023-10-25T04:36:13.587Z,74.82
2023-10-25T04:39:19.916Z,74.91
2023-10-25T04:42:26.648Z,74.57
2023-10-25T04:45:35.138Z,74.27
2023-10-25T04:48:41.870Z,74.20
2023-10-25T04:51:47.887Z,74.49
2023-10-25T04:54:54.708Z,74.35
2023-10-25T04:58:00.788Z,74.27
2023-10-25T05:01:18.540Z,74.45
2023-10-25T05:04:24.451Z,74.53
2023-10-25T05:07:31.969Z,74.69
2023-10-25T05:10:39.066Z,74.65
2023-10-25T05:13:47.077Z,74.99
2023-10-25T05:16:56.537Z,75.00
2023-10-25T05:20:04.514Z,75.10
2023-10-25T05:23:13.917Z,74.50
2023-10-25T05:26:21.552Z,74.62
2023-10-25T05:29:28.611Z,74.91
2023-10-25T05:32:41.083Z,74.95
2023-10-25T05:35:47.881Z,75.57
2023-10-25T05:38:55.611Z,75.88
2023-10-25T05:42:09.131Z,75.91
2023-10-25T05:45:15.844Z,76.25
2023-10-25T05:48:25.345Z,76.22
2023-10-25T05:51:33.032Z,76.33
2023-10-25T05:54:40.179Z,76.00
2023-10-25T05:57:48.452Z,76.36
2023-10-25T06:00:57.454Z,76.57
2023-10-25T06:04:12.571Z,76.33
2023-10-25T06:07:20.456Z,76.09
2023-10-25T06:10:30.403Z,76.48
2023-10-25T06:13:37.695Z,76.31
2023-10-25T06:16:44.568Z,76.09
2023-10-25T06:19:54.039Z,76.26
2023-10-25T06:23:01.340Z,76.08
2023-10-25T06:26:07.366Z,75.75
2023-10-25T06:29:14.107Z,75.89
2023-10-25T06:32:21.601Z,76.01
2023-10-25T06:35:31.016Z,76.18
2023-10-25T06:38:38.079Z,76.25
2023-10-25T06:41:48.170Z,76.29
2023-10-25T06:44:55.237Z,76.12
2023-10-25T06:48:02.898Z,76.00
2023-10-25T06:51:13.815Z,75.90
2023-10-25T06:54:21.429Z,75.76
2023-10-25T06:57:28.288Z,75.70
2023-10-25T07:00:36.968Z,75.49
2023-10-25T07:03:50.971Z,75.36
2023-10-25T07:07:02.138Z,75.36
2023-10-25T07:10:10.546Z,75.60
2023-10-25T07:13:17.257Z,75.57
2023-10-25T07:16:23.573Z,75.62
2023-10-25T07:19:30.258Z,75.21
2023-10-25T07:22:39.530Z,75.40
2023-10-25T07:25:46.775Z,75.17
2023-10-25T07:28:52.481Z,75.00
2023-10-25T07:31:59.128Z,74.81
2023-10-25T07:35:05.260Z,74.64
2023-10-25T07:38:14.467Z,74.35
2023-10-25T07:41:20.276Z,74.30
2023-10-25T07:44:26.994Z,74.26
2023-10-25T07:47:33.063Z,74.37
2023-10-25T07:50:39.786Z,73.92
2023-10-25T07:53:48.166Z,74.08
2023-10-25T08:00:04.128Z,74.08
2023-10-25T08:03:19.207Z,73.62
2023-10-25T08:06:25.721Z,73.72
2023-10-25T08:09:36.913Z,74.09
2023-10-25T08:12:42.731Z,74.31
2023-10-25T08:15:50.687Z,74.05
2023-10-25T08:18:56.702Z,73.47
2023-10-25T08:22:04.498Z,73.07
2023-10-25T08:25:13.480Z,72.69
2023-10-25T08:28:20.172Z,72.43
2023-10-25T08:31:26.525Z,73.10
2023-10-25T08:34:33.943Z,72.88
2023-10-25T08:37:42.350Z,72.78
2023-10-25T08:40:52.783Z,72.05
2023-10-25T08:43:59.177Z,71.62
2023-10-25T08:47:05.837Z,71.85
2023-10-25T08:50:15.395Z,72.24
2023-10-25T08:53:27.699Z,72.31
2023-10-25T08:56:36.299Z,71.70
2023-10-25T08:59:48.640Z,71.75
2023-10-25T09:02:58.306Z,71.67
2023-10-25T09:06:07.879Z,72.10
2023-10-25T09:09:14.254Z,71.55
2023-10-25T09:12:27.483Z,72.26
2023-10-25T09:15:34.144Z,72.39
2023-10-25T09:18:44.061Z,71.95
2023-10-25T09:21:50.009Z,72.38
2023-10-25T09:24:59.755Z,72.18
2023-10-25T09:28:08.820Z,71.63
2023-10-25T09:31:27.892Z,71.80
2023-10-25T09:34:33.928Z,71.91
2023-10-25T09:37:40.612Z,71.65
2023-10-25T09:40:47.273Z,71.54
2023-10-25T09:44:02.563Z,71.75
2023-10-25T09:47:13.961Z,71.63
2023-10-25T09:50:32.658Z,72.11
2023-10-25T09:53:47.679Z,71.65
2023-10-25T09:57:00.303Z,72.11
2023-10-25T10:00:12.507Z,71.78
2023-10-25T10:03:34.734Z,71.67
2023-10-25T10:06:54.105Z,72.06
2023-10-25T10:10:18.906Z,72.30
2023-10-25T10:13:25.829Z,72.50
2023-10-25T10:16:36.736Z,72.52
2023-10-25T10:19:44.751Z,72.33
2023-10-25T10:23:06.523Z,72.68
2023-10-25T10:26:13.406Z,72.47
2023-10-25T10:29:43.023Z,72.20
2023-10-25T10:32:59.783Z,72.48
2023-10-25T10:36:07.062Z,72.64
2023-10-25T10:39:17.908Z,72.27
2023-10-25T10:42:25.683Z,72.25
2023-10-25T10:45:34.580Z,72.72
2023-10-25T10:48:49.361Z,72.55
2023-10-25T10:51:56.611Z,72.08
2023-10-25T10:55:03.342Z,71.97
2023-10-25T10:58:10.016Z,71.44
2023-10-25T11:01:16.800Z,71.20
2023-10-25T11:04:25.321Z,71.18
2023-10-25T11:07:32.032Z,70.69
2023-10-25T11:10:37.952Z,70.42
2023-10-25T11:13:44.818Z,70.15
2023-10-25T11:16:50.720Z,70.02
2023-10-25T11:20:01.175Z,69.68
2023-10-25T11:23:08.130Z,70.02
2023-10-25T11:26:14.863Z,68.28
2023-10-25T11:29:21.930Z,69.64
2023-10-25T11:32:28.609Z,69.99
2023-10-25T11:35:39.430Z,69.07
2023-10-25T11:38:47.439Z,68.54
2023-10-25T11:41:54.483Z,68.02
2023-10-25T11:45:03.870Z,68.47
2023-10-25T11:48:12.219Z,68.30
2023-10-25T11:51:22.831Z,67.05
2023-10-25T11:54:28.760Z,66.24
2023-10-25T11:57:37.118Z,65.79
2023-10-25T12:00:42.897Z,64.87
2023-10-25T12:03:50.201Z,63.00
2023-10-25T12:06:59.093Z,64.11
2023-10-25T12:10:06.671Z,67.25
2023-10-25T12:13:12.451Z,65.90
2023-10-25T12:16:19.135Z,66.24
2023-10-25T12:19:25.054Z,67.01
2023-10-25T12:22:34.256Z,64.36
2023-10-25T12:25:40.144Z,64.42
2023-10-25T12:28:47.054Z,64.99
2023-10-25T12:31:52.970Z,64.92
2023-10-25T12:34:59.713Z,59.50
2023-10-25T12:38:08.134Z,56.42
2023-10-25T12:41:14.781Z,56.28
2023-10-25T12:44:20.858Z,54.60
2023-10-25T12:47:27.529Z,52.88
2023-10-25T12:50:33.597Z,49.88
2023-10-25T12:53:43.304Z,50.38
2023-10-25T12:56:49.624Z,49.30
2023-10-25T12:59:56.350Z,47.03
2023-10-25T13:03:02.301Z,47.63
2023-10-25T13:06:09.964Z,46.35
2023-10-25T13:09:18.486Z,46.92
2023-10-25T13:12:25.224Z,45.57
2023-10-25T13:15:31.232Z,46.37
2023-10-25T13:18:38.010Z,46.44
2023-10-25T13:21:45.002Z,46.43
2023-10-25T13:24:54.206Z,46.93
2023-10-25T13:28:00.291Z,47.63
2023-10-25T13:31:07.400Z,47.86
2023-10-25T13:34:13.304Z,48.32
2023-10-25T13:37:20.943Z,48.08
2023-10-25T13:40:29.357Z,48.42
2023-10-25T13:43:40.912Z,49.48
2023-10-25T13:46:46.748Z,49.95
2023-10-25T13:49:53.417Z,50.07
2023-10-25T13:52:59.275Z,50.43
2023-10-25T13:56:10.143Z,49.78
2023-10-25T13:59:16.241Z,49.97
2023-10-25T14:02:22.913Z,50.01
2023-10-25T14:05:28.828Z,49.65
2023-10-25T14:08:36.260Z,49.44
2023-10-25T14:11:48.093Z,49.94
2023-10-25T14:14:54.839Z,50.58
2023-10-25T14:18:00.915Z,50.61
2023-10-25T14:21:16.504Z,50.89
2023-10-25T14:24:26.224Z,50.72
2023-10-25T14:27:39.943Z,50.84
2023-10-25T14:30:47.559Z,51.67
2023-10-25T14:33:55.095Z,52.09
2023-10-25T14:37:00.966Z,52.42
2023-10-25T14:40:10.518Z,52.65
2023-10-25T14:43:18.976Z,52.33
2023-10-25T14:46:28.840Z,52.40
2023-10-25T14:49:35.069Z,52.33
2023-10-25T14:52:44.656Z,52.40
2023-10-25T14:55:50.878Z,53.46
2023-10-25T14:59:00.394Z,53.70
2023-10-25T15:02:06.231Z,53.84
2023-10-25T15:05:13.522Z,54.07
2023-10-25T15:08:19.400Z,54.48
2023-10-25T15:11:26.448Z,54.49
2023-10-25T15:14:39.410Z,54.48
2023-10-25T15:17:49.877Z,54.56
2023-10-25T15:20:56.093Z,54.68
2023-10-25T15:24:02.796Z,54.78
2023-10-25T15:27:08.828Z,54.91
2023-10-25T15:30:19.956Z,54.84
2023-10-25T15:33:26.104Z,54.92
2023-10-25T15:36:32.751Z,55.16
2023-10-25T15:39:38.696Z,55.28
2023-10-25T15:42:47.038Z,55.44
2023-10-25T15:45:55.894Z,55.93
2023-10-25T15:49:03.711Z,56.18
2023-10-25T15:52:12.374Z,56.34
2023-10-25T15:55:19.193Z,56.88
2023-10-25T15:58:25.078Z,57.08
2023-10-25T16:01:45.460Z,57.03
2023-10-25T16:05:00.293Z,56.81
2023-10-25T16:08:07.043Z,56.74
2023-10-25T16:11:16.677Z,56.84
2023-10-25T16:14:24.597Z,57.03
2023-10-25T16:17:33.250Z,57.19
2023-10-25T16:20:44.486Z,57.50
2023-10-25T16:23:50.574Z,57.92
2023-10-25T16:26:58.206Z,58.35
2023-10-25T16:30:04.391Z,58.70
2023-10-25T16:33:13.914Z,58.82
2023-10-25T16:36:19.799Z,58.75
2023-10-25T16:39:26.359Z,59.14
2023-10-25T16:42:32.716Z,59.04
2023-10-25T16:45:39.873Z,59.00
2023-10-25T16:48:48.953Z,59.10
2023-10-25T16:51:55.610Z,59.38
2023-10-25T16:55:01.869Z,59.39
2023-10-25T16:58:08.516Z,59.70
2023-10-25T17:01:17.453Z,60.19
2023-10-25T17:04:26.850Z,60.66
2023-10-25T17:07:32.927Z,60.85
2023-10-25T17:10:40.367Z,61.02
2023-10-25T17:13:46.171Z,61.11
2023-10-25T17:16:52.985Z,61.35
2023-10-25T17:20:01.448Z,61.81
2023-10-25T17:23:08.066Z,61.97
2023-10-25T17:26:15.186Z,62.03
2023-10-25T17:29:21.968Z,62.58
2023-10-25T17:32:30.826Z,63.08
2023-10-25T17:35:40.357Z,64.03
2023-10-25T17:38:46.169Z,63.89
2023-10-25T17:41:52.830Z,63.28
2023-10-25T17:44:58.786Z,63.09
2023-10-25T17:48:05.484Z,62.70
2023-10-25T17:51:14.626Z,62.90
2023-10-25T17:54:21.422Z,62.87
2023-10-25T17:57:27.594Z,63.17
2023-10-25T18:00:34.464Z,63.12
2023-10-25T18:03:40.562Z,63.61
2023-10-25T18:07:06.541Z,63.81
2023-10-25T18:10:14.280Z,63.76
2023-10-25T18:13:21.417Z,64.08
2023-10-25T18:16:27.322Z,63.70
2023-10-25T18:19:34.077Z,63.63
2023-10-25T18:22:42.987Z,63.60
2023-10-25T18:25:50.329Z,63.72
2023-10-25T18:28:56.228Z,63.57
2023-10-25T18:32:24.311Z,63.21
2023-10-25T18:35:30.396Z,62.97
2023-10-25T18:38:40.082Z,62.96
2023-10-25T18:41:46.122Z,62.99
2023-10-25T18:44:57.916Z,62.86
2023-10-25T18:48:03.843Z,63.33
2023-10-25T18:51:14.479Z,64.15
2023-10-25T18:54:23.217Z,65.12
2023-10-25T18:57:29.927Z,65.42
2023-10-25T19:00:35.974Z,65.97
2023-10-25T19:03:42.873Z,65.94
2023-10-25T19:07:01.204Z,65.72
2023-10-25T19:10:29.774Z,65.69
2023-10-25T19:13:36.853Z,65.55
2023-10-25T19:16:43.836Z,65.39
2023-10-25T19:19:58.155Z,65.27
2023-10-25T19:23:16.687Z,65.21
2023-10-25T19:26:27.612Z,65.16
2023-10-25T19:29:40.431Z,64.86
2023-10-25T19:32:46.702Z,64.62
2023-10-25T19:35:53.273Z,64.79
2023-10-25T19:39:07.290Z,65.10
2023-10-25T19:42:16.690Z,64.97
2023-10-25T19:45:23.527Z,65.38
2023-10-25T19:48:30.332Z,65.54
2023-10-25T19:51:37.331Z,65.98
2023-10-25T19:54:44.431Z,65.58
2023-10-25T19:57:55.798Z,65.42
2023-10-25T20:01:02.560Z,65.28
2023-10-25T20:04:09.123Z,64.89
2023-10-25T20:07:15.953Z,64.90
2023-10-25T20:10:22.222Z,65.10
2023-10-25T20:13:31.778Z,65.60
2023-10-25T20:16:37.654Z,66.64
2023-10-25T20:19:44.209Z,67.20
2023-10-25T20:22:50.040Z,67.58
2023-10-25T20:26:00.236Z,68.22
2023-10-25T20:29:11.914Z,68.47
2023-10-25T20:32:18.586Z,68.61
2023-10-25T20:35:24.488Z,68.88
2023-10-25T20:38:31.501Z,69.25
2023-10-25T20:41:37.345Z,69.24
2023-10-25T20:44:50.017Z,68.19
2023-10-25T20:47:56.000Z,67.51
2023-10-25T20:51:05.094Z,67.48
2023-10-25T20:54:11.146Z,67.72
2023-10-25T20:57:17.731Z,68.05
2023-10-25T21:00:26.444Z,67.84
2023-10-25T21:03:33.878Z,67.72
2023-10-25T21:06:40.192Z,67.41
2023-10-25T21:09:47.031Z,67.08
2023-10-25T21:12:53.044Z,66.97
2023-10-25T21:16:05.273Z,67.26
2023-10-25T21:19:11.294Z,67.44
2023-10-25T21:22:17.972Z,68.03
2023-10-25T21:25:23.732Z,68.58
2023-10-25T21:28:30.562Z,69.30
2023-10-25T21:31:39.088Z,69.64
2023-10-25T21:34:46.262Z,70.00
2023-10-25T21:37:52.707Z,70.21
2023-10-25T21:40:59.618Z,70.16
2023-10-25T21:44:05.426Z,70.25
2023-10-25T21:47:14.774Z,70.28
2023-10-25T21:50:20.821Z,70.34
2023-10-25T21:53:27.590Z,70.17
2023-10-25T21:56:33.392Z,70.17
2023-10-25T21:59:48.697Z,70.39
2023-10-25T22:03:02.099Z,70.37
2023-10-25T22:06:09.323Z,70.36
2023-10-25T22:09:15.814Z,70.63
2023-10-25T22:12:22.699Z,70.59
2023-10-25T22:15:29.630Z,70.47
2023-10-25T22:18:38.822Z,70.46
2023-10-25T22:21:45.251Z,70.40
2023-10-25T22:24:51.794Z,70.36
2023-10-25T22:28:00.155Z,70.28
2023-10-25T22:31:07.676Z,70.18
2023-10-25T22:34:19.658Z,69.86
2023-10-25T22:37:26.776Z,69.69
2023-10-25T22:40:32.317Z,70.03
2023-10-25T22:43:38.702Z,70.22
2023-10-25T22:46:44.362Z,70.11
2023-10-25T22:49:53.608Z,70.67
2023-10-25T22:52:59.243Z,70.65
2023-10-25T22:56:12.622Z,70.76
2023-10-25T22:59:18.259Z,71.01
2023-10-25T23:02:25.239Z,71.22
2023-10-25T23:05:33.524Z,71.52
2023-10-25T23:08:40.008Z,71.60
2023-10-25T23:11:45.833Z,71.59
2023-10-25T23:14:52.337Z,71.60
2023-10-25T23:17:58.193Z,71.82
2023-10-25T23:21:08.399Z,71.69
2023-10-25T23:24:14.151Z,71.52
2023-10-25T23:27:20.581Z,71.33
2023-10-25T23:30:26.175Z,70.92
2023-10-25T23:33:32.661Z,70.63
2023-10-25T23:36:40.880Z,70.55
2023-10-25T23:39:47.408Z,70.29
2023-10-25T23:42:53.137Z,70.23
2023-10-25T23:46:00.406Z,70.15
2023-10-25T23:49:06.337Z,70.07
2023-10-25T23:52:15.701Z,70.27
2023-10-25T23:55:21.381Z,70.26
2023-10-25T23:58:27.945Z,70.29
